Recent forum postings ...
Today
Change wake turbulence after filing FP
Yesterday
KLM-VA site "not responding", is my flight toast?
3 days ago
Fly KLM Mon CTL
2021-04-09
SCHEDULE FLIGHT BOEING 737
2021-04-08
Law and rules in KLM VA
2021-04-04
Flying a Tour.


 
Aircraft IdentFlightrulesType of Flight
KLM472IS
NumberType of AircraftWake turbulenceEquipmentTransponder Type
1B734MSDRWYS
Departure AerodromeDeparture Time
EHEH1623
Cruising speedFlight level
N0150F064
Route
RIVER



Destination AerodromeTotal EETAlternative Aerodrome
EHAM0100
Other information
KLM VA RMK

Explanation of the IVAO flightplan

Eindhoven AB (EHEH), Netherlands

METAR
EHEH 081455Z AUTO 22013KT 190V270 9999 OVC230 09/M02 Q1022 BLU NOSIG

WINDSW at 15 mph
VISIBILITY16 miles
CONDITIONS
CLOUDSovercast
TEMP48°F (9°C)
WIND CHILL42°F (6°C)
DEWPT28°F (-2°C)
HUMIDITY46%
BAROMETER1022 hPa (30.18 in Hg)

Schiphol (EHAM), Netherlands

METAR
EHAM 081525Z 25017KT 9999 BKN045 08/M01 Q1020 NOSIG

WINDWSW at 20 mph
VISIBILITY16 miles
CONDITIONS
CLOUDSmostly cloudy
TEMP46°F (8°C)
WIND CHILL38°F (3°C)
DEWPT30°F (-1°C)
HUMIDITY53%
BAROMETER1020 hPa (30.12 in Hg)

RUNWAYS

RunwayDesignatorSurfaceHeadingLengthWidthAltitudeILSILS-Freq.Glidescope Pitch
18CENTERASPHALT183.223295.5 ft45.11 ft-3.35 ftCAT III ILS/DME 36C108.753
18LEFTASPHALT183.253393.64 ft45.11 ft-3.35 ftCAT III ILS/DME 36R111.953
Registration TimeGroundspeedAltitudeTransponderHeadingLongitudeLatitudeOn ground
15:21 08-04-20210 kts83 ft12001235.3914451.4591Yes
15:246 kts83 ft12003485.3898851.4592Yes
15:27171 kts83 ft12002165.3704251.4468Yes
15:30263 kts3355 ft12002245.1513351.301No
15:33272 kts5741 ft12003244.8976851.3007No
15:36269 kts5782 ft12003244.6767751.4791No
15:39272 kts5953 ft32003244.4613751.6527No
15:42270 kts6067 ft13023244.2391951.828No
15:45256 kts6113 ft1302524.3305251.9904No
15:48170 kts2635 ft1302524.5647752.0961No
15:51158 kts1680 ft1302524.7281352.1659No
15:54166 kts318 ft13023594.7778252.2755No
15:570 kts-2 ft13021284.7846652.2965Yes
16:000 kts-2 ft13021284.7846652.2965Yes
16:030 kts-2 ft13021284.7846652.2965Yes
16:060 kts-2 ft13021284.7846752.2965Yes
16:090 kts-2 ft13021284.7846752.2965Yes
16:120 kts-2 ft13021284.7846752.2965Yes
16:180 kts-2 ft13021284.7848152.2965Yes